Observations for Trim Patrick St
| Time | AQI | Temp °C | Hum % | Pres Pa | CO μg/m³ | H₂S μg/m³ | NO μg/m³ | NO₂ μg/m³ | O₃ μg/m³ | SO₂ μg/m³ | PM1 μg/m³ | PM2.5 μg/m³ | PM10 μg/m³ |
|---|---|---|---|---|---|---|---|---|---|---|---|---|---|
| Monday 3 August 2026 | |||||||||||||
| 10:56 | 2 | 26.9 | 50 | 69,173 | 0 | 0 | 2.21 | 5.27 | 68.66 | 6.03 | 3.71 | 9.5 | 10.44 |
| 10:55 | 2 | 26.9 | 48 | 69,169 | 0 | 0 | 2.12 | 4.3 | 65.9 | 6.35 | 4.57 | 9.61 | 10.57 |
| 10:54 | 2 | 26.8 | 49 | 69,197 | 0 | 0 | 2.18 | 5.91 | 69.4 | 7.64 | 4.57 | 11.1 | 12.21 |
| 10:53 | 2 | 26.8 | 51 | 69,201 | 0 | 0 | 2.45 | 7.8 | 72.58 | 7.29 | 4.57 | 10.92 | 12.01 |
| 10:52 | 2 | 26.7 | 51 | 69,228 | 0 | 0 | 2.44 | 5.87 | 69.49 | 5.16 | 3.71 | 10.16 | 11.17 |
| 10:51 | 2 | 26.6 | 55 | 69,240 | 0 | 0 | 2.82 | 0 | 57.19 | 7.36 | 4.57 | 9.85 | 10.83 |
| 10:50 | 2 | 26.6 | 54 | 69,286 | 0 | 0 | 2.7 | 5.52 | 66.48 | 7.26 | 4.57 | 10.69 | 11.76 |
| 10:49 | 2 | 26.5 | 54 | 69,310 | 0 | 0 | 2.63 | 4.86 | 63.33 | 7.15 | 4.57 | 9.97 | 10.96 |
| 10:48 | 2 | 26.4 | 51 | 69,332 | 0 | 0 | 2.41 | 12.21 | 59.98 | 6.59 | 5.43 | 10.92 | 12.01 |
| 10:47 | 2 | 26.4 | 54 | 69,361 | 0 | 0 | 2.66 | 10.81 | 61.75 | 6.66 | 4.57 | 9.93 | 10.92 |
| 10:46 | 2 | 26.4 | 53 | 69,371 | 0 | 0 | 2.56 | 11.88 | 62.93 | 7.45 | 3.71 | 10 | 11 |
| 10:45 | 2 | 26.4 | 51 | 69,410 | 0 | 0 | 2.32 | 12.15 | 64.44 | 6.3 | 5.43 | 11.68 | 12.85 |
| 10:44 | 2 | 26.4 | 53 | 69,464 | 0 | 0 | 2.56 | 8.28 | 63.26 | 7.13 | 5.43 | 10.79 | 11.87 |
| 10:43 | 2 | 26.3 | 52 | 69,479 | 0 | 0 | 2.46 | 7 | 63.96 | 6.71 | 5.43 | 10.1 | 11.11 |
| 10:42 | 2 | 26.3 | 53 | 69,561 | 0 | 0 | 2.52 | 9.3 | 64.34 | 7.38 | 5.43 | 11.55 | 12.71 |
| 10:40 | 2 | 26.3 | 54 | 69,810 | 0.01 | 0 | 2.6 | 0 | 50.55 | 5.52 | 5.43 | 11.48 | 12.62 |
| 10:39 | 2 | 26.3 | 53 | 69,970 | 0.03 | 0 | 2.38 | 13.12 | 61.92 | 6.96 | 6.29 | 11.52 | 12.67 |
| 10:38 | 2 | 26.2 | 54 | 70,079 | 0.05 | 0 | 2.53 | 7.86 | 59.66 | 6.84 | 7.14 | 12.22 | 13.44 |
| 10:37 | 2 | 26.1 | 53 | 70,215 | 0.06 | 0 | 2.52 | 14.67 | 55.56 | 6.63 | 6.29 | 10.74 | 11.82 |
| 10:36 | 2 | 26.1 | 53 | 70,337 | 0.02 | 0 | 2.48 | 11.5 | 59.08 | 7.53 | 5.43 | 10.78 | 11.86 |